CheckWX is a tool to help pilots better visualize weather data.  It is not intended as a substitute for an official pre-flight weather briefing.

06:56:39 UTC

KLAF TAF
Purdue University Airport
Lafayette, Indiana, USA
KLAF 210520Z 2106/2206 VRB04KT P6SM SCT250 FM211500 21012G21KT P6SM SCT040 BKN250 FM220000 19008KT P6SM BKN200 AMD LTD TO CLD VIS AND WIND TIL 211300

Sep-21@
06:00 UTC

Sep-21 @ 06:00 UTC

Sep-21@
15:00 UTC

Sep-21 @ 15:00 UTC

KLAF 210520Z 2106/2206 VRB04KT P6SM SCT250
Wind
  • Variable at 4 KTS
Cloud Levels
  • Scattered at 25,000' AGL

Sep-21@
15:00 UTC

Sep-21 @ 15:00 UTC

Sep-22@
00:00 UTC

Sep-22 @ 00:00 UTC

FM211500 21012G21KT P6SM SCT040 BKN250

From

From Standard forecast or significant change

Wind
  • 210° at 12 KTS
  • {Gusting to 21 KTS
Cloud Levels
  • Scattered at 4,000' AGL
  • Broken at 25,000' AGL

Sep-22@
00:00 UTC

Sep-22 @ 00:00 UTC

Sep-22@
06:00 UTC

Sep-22 @ 06:00 UTC

FM220000 19008KT P6SM BKN200 AMD LTD TO CLD VIS AND WIND TIL 211300

From

From Standard forecast or significant change

Wind
  • 190° at 8 KTS
Cloud Levels
  • Broken at 20,000' AGL